Welcome to Northern Hawkes Bay. New Zealand.
PWS Header
      nz Flag



Hit Counter


W3C Valid W3C Valid logo


    Wairoa

Select any of the Stations below to visit their websites.










Historic Data from Weather Underground
Select the location of interest below. Wairoa is the default. Please have patience, this Data is slow to load in.
Northern Hawkes Bay Historical Data
Daily Summary for June 22, 2017 Units:  English    Metric   Both
« Previous Day
Next Day »
Daily Weekly Monthly Yearly Custom
  High: Low: Average:
Temperature: 57.7 °F 38.7 °F 46.9 °F
Dew Point: 57.6 °F 38.5 °F 46.4 °F
Humidity: 99% 93% 98%
Wind Speed: 12.1mph 0mph 1.9mph
Wind Gust: 16.8mph - -
Wind- - WSW
Pressure: 30.2 in 29.7 in -
Precipitation: 0.25 in    
Historical Graphs
 
 
Tabular Data for June 22, 2017
Time Temperature Dew Point Pressure Wind Wind Speed Wind Gust Humidity Rainfall Rate (Hourly) solar
00:02 47.1 °F 46 °F 30.2 in NNE 1.6 mph 3.1 mph 96% 0 in 0 W/m2
00:07 47.3 °F 46.2 °F 30.2 in NNE 1.6 mph 3.8 mph 96% 0 in 0 W/m2
00:12 46.6 °F 45 °F 30.2 in NNW 0.7 mph 3.8 mph 94% 0 in 0 W/m2
00:17 46 °F 44.4 °F 30.2 in NNW 0.7 mph 3.1 mph 94% 0 in 0 W/m2
00:22 46 °F 44.4 °F 30.2 in North 2.2 mph 3.1 mph 94% 0 in 0 W/m2
00:27 45.3 °F 43.3 °F 30.2 in NNW 1.6 mph 3.1 mph 93% 0 in 0 W/m2
00:32 45.1 °F 43.5 °F 30.2 in NNW 1.6 mph 3.1 mph 94% 0 in 0 W/m2
00:37 45 °F 43.3 °F 30.2 in North 0.7 mph 2.2 mph 94% 0 in 0 W/m2
00:42 44.8 °F 43.3 °F 30.2 in North 1.6 mph 2.2 mph 95% 0 in 0 W/m2
00:47 44.8 °F 43.3 °F 30.2 in North 1.6 mph 3.1 mph 95% 0 in 0 W/m2
00:52 44.4 °F 43.3 °F 30.2 in NNE 1.6 mph 3.1 mph 96% 0 in 0 W/m2
00:57 44.1 °F 43 °F 30.2 in NNW 3.1 mph 3.8 mph 96% 0 in 0 W/m2
01:02 43.3 °F 42.3 °F 30.2 in NW 3.1 mph 3.8 mph 96% 0 in 0 W/m2
01:07 43.2 °F 42.4 °F 30.2 in NW 2.2 mph 3.8 mph 97% 0 in 0 W/m2
01:12 43.3 °F 42.4 °F 30.2 in NW 1.6 mph 4.5 mph 97% 0 in 0 W/m2
01:17 43.3 °F 42.8 °F 30.2 in NNW 1.6 mph 4.5 mph 98% 0 in 0 W/m2
01:22 43.2 °F 42.6 °F 30.2 in NNW 0.7 mph 3.1 mph 98% 0 in 0 W/m2
01:27 43.2 °F 42.6 °F 30.2 in Calm   3.1 mph 98% 0 in 0 W/m2
01:32 43 °F 42.4 °F 30.2 in Calm   1.6 mph 98% 0 in 0 W/m2
01:37 43.2 °F 42.6 °F 30.2 in North 0.7 mph 1.6 mph 98% 0 in 0 W/m2
01:42 43.3 °F 42.8 °F 30.2 in North 0.7 mph 1.6 mph 98% 0 in 0 W/m2
01:47 43.3 °F 42.8 °F 30.2 in North 0.7 mph 2.2 mph 98% 0 in 0 W/m2
01:52 42.6 °F 42.4 °F 30.2 in North 1.6 mph 2.2 mph 99% 0 in 0 W/m2
01:57 42.4 °F 42.3 °F 30.2 in North 1.6 mph 3.1 mph 99% 0 in 0 W/m2
02:02 42.8 °F 42.3 °F 30.2 in North 1.6 mph 3.1 mph 98% 0 in 0 W/m2
02:07 42.4 °F 42.3 °F 30.2 in North 1.6 mph 3.1 mph 99% 0 in 0 W/m2
02:12 42.3 °F 42.1 °F 30.2 in North 1.6 mph 2.2 mph 99% 0 in 0 W/m2
02:17 41.9 °F 41.5 °F 30.2 in NNW 3.1 mph 3.8 mph 99% 0 in 0 W/m2
02:22 41.4 °F 41.2 °F 30.2 in NW 2.2 mph 3.8 mph 99% 0 in 0 W/m2
02:27 41.2 °F 40.8 °F 30.2 in NNW 2.2 mph 3.8 mph 99% 0 in 0 W/m2
02:28 41 °F 40.6 °F 30.2 in NNW 2.2 mph 3.8 mph 99% 0 in 0 W/m2
02:33 41 °F 40.6 °F 30.2 in North 2.2 mph 3.8 mph 99% 0 in 0 W/m2
02:38 40.8 °F 40.6 °F 30.2 in North 2.2 mph 3.8 mph 99% 0 in 0 W/m2
02:43 40.6 °F 40.5 °F 30.2 in North 1.6 mph 3.8 mph 99% 0 in 0 W/m2
02:48 40.6 °F 40.5 °F 30.2 in NNE 0.7 mph 3.1 mph 99% 0 in 0 W/m2
02:53 40.6 °F 40.5 °F 30.2 in Calm   3.1 mph 99% 0 in 0 W/m2
02:58 40.5 °F 40.3 °F 30.2 in North 0.7 mph 1.6 mph 99% 0 in 0 W/m2
03:03 40.5 °F 40.3 °F 30.2 in North 1.6 mph 3.1 mph 99% 0 in 0 W/m2
03:08 40.3 °F 39.9 °F 30.2 in North 2.2 mph 3.1 mph 99% 0 in 0 W/m2
03:13 40.1 °F 39.7 °F 30.2 in North 1.6 mph 3.1 mph 99% 0 in 0 W/m2
03:18 39.9 °F 39.7 °F 30.2 in North 0.7 mph 3.1 mph 99% 0 in 0 W/m2
03:23 39.7 °F 39.6 °F 30.2 in North 2.2 mph 3.1 mph 99% 0 in 0 W/m2
03:28 39.7 °F 39.6 °F 30.2 in North 1.6 mph 3.1 mph 99% 0 in 0 W/m2
03:33 39.6 °F 39.4 °F 30.2 in North 1.6 mph 3.8 mph 99% 0 in 0 W/m2
03:38 39.6 °F 39.4 °F 30.2 in NNW 0.7 mph 3.8 mph 99% 0 in 0 W/m2
03:43 39.4 °F 39 °F 30.2 in North 0.7 mph 3.1 mph 99% 0 in 0 W/m2
03:48 39.2 °F 38.8 °F 30.2 in Calm   2.2 mph 99% 0 in 0 W/m2
03:53 39.2 °F 38.8 °F 30.2 in North 0.7 mph 2.2 mph 99% 0 in 0 W/m2
03:58 39.2 °F 38.8 °F 30.2 in Calm   1.6 mph 99% 0 in 0 W/m2
04:03 39 °F 38.8 °F 30.1 in North 0.7 mph 1.6 mph 99% 0 in 0 W/m2
04:08 39 °F 38.8 °F 30.1 in NNW 1.6 mph 3.1 mph 99% 0 in 0 W/m2
04:13 39 °F 38.8 °F 30.1 in NNW 0.7 mph 3.1 mph 99% 0 in 0 W/m2
04:18 38.8 °F 38.7 °F 30.1 in North 0.7 mph 3.1 mph 99% 0 in 0 W/m2
04:23 38.7 °F 38.5 °F 30.1 in North 2.2 mph 3.1 mph 99% 0 in 0 W/m2
04:28 38.8 °F 38.7 °F 30.1 in NNW 3.1 mph 4.5 mph 99% 0 in 0 W/m2
04:33 39 °F 38.8 °F 30.1 in NNW 3.1 mph 4.5 mph 99% 0 in 0 W/m2
04:38 39 °F 38.8 °F 30.1 in NNW 3.1 mph 4.5 mph 99% 0 in 0 W/m2
04:43 39 °F 38.8 °F 30.1 in North 2.2 mph 4.5 mph 99% 0 in 0 W/m2
04:48 39 °F 38.8 °F 30.1 in North 1.6 mph 4.5 mph 99% 0 in 0 W/m2
04:53 39 °F 38.8 °F 30.1 in NNW 1.6 mph 3.1 mph 99% 0 in 0 W/m2
04:58 39 °F 38.8 °F 30.1 in North 1.6 mph 3.8 mph 99% 0 in 0 W/m2
05:03 39 °F 38.8 °F 30.1 in North 1.6 mph 4.5 mph 99% 0 in 0 W/m2
05:08 39 °F 38.8 °F 30.1 in North 1.6 mph 4.5 mph 99% 0 in 0 W/m2
05:13 39 °F 38.8 °F 30.1 in North 1.6 mph 4.5 mph 99% 0 in 0 W/m2
05:18 39 °F 38.8 °F 30.1 in NNW 1.6 mph 4.5 mph 99% 0 in 0 W/m2
05:23 38.8 °F 38.7 °F 30.1 in NNW 2.2 mph 3.8 mph 99% 0 in 0 W/m2
05:28 38.8 °F 38.7 °F 30.1 in North 1.6 mph 3.8 mph 99% 0 in 0 W/m2
05:33 39 °F 38.8 °F 30.1 in North 1.6 mph 3.8 mph 99% 0 in 0 W/m2
05:38 39 °F 38.8 °F 30.1 in North 2.2 mph 4.5 mph 99% 0 in 0 W/m2
05:43 39.2 °F 38.8 °F 30.1 in North 2.2 mph 4.5 mph 99% 0 in 0 W/m2
05:48 39.4 °F 39 °F 30.1 in North 2.2 mph 4.5 mph 99% 0 in 0 W/m2
05:53 39.6 °F 39.4 °F 30.1 in NNW 1.6 mph 3.8 mph 99% 0 in 0 W/m2
05:58 39.7 °F 39.6 °F 30.1 in NNW 2.2 mph 4.5 mph 99% 0 in 0 W/m2
06:03 40.1 °F 39.7 °F 30.1 in NNW 3.1 mph 4.5 mph 99% 0 in 0 W/m2
06:08 40.1 °F 39.7 °F 30.1 in NNW 3.8 mph 5.4 mph 99% 0 in 0 W/m2
06:13 40.3 °F 39.9 °F 30.1 in NNW 3.1 mph 5.4 mph 99% 0 in 0 W/m2
06:18 40.3 °F 39.9 °F 30.1 in NNW 2.2 mph 5.4 mph 99% 0 in 0 W/m2
06:23 40.1 °F 39.7 °F 30.1 in NNW 3.1 mph 4.5 mph 99% 0 in 0 W/m2
06:28 40.1 °F 39.7 °F 30.1 in NNW 3.8 mph 6 mph 99% 0 in 0 W/m2
06:33 40.1 °F 39.7 °F 30.1 in NNW 1.6 mph 6 mph 99% 0 in 0 W/m2
06:38 40.1 °F 39.7 °F 30.1 in NNW 1.6 mph 6 mph 99% 0 in 0 W/m2
06:43 40.1 °F 39.7 °F 30.1 in North 1.6 mph 3.8 mph 99% 0 in 0 W/m2
06:48 40.1 °F 39.7 °F 30.1 in NNW 1.6 mph 3.1 mph 99% 0 in 0 W/m2
06:53 40.1 °F 39.7 °F 30.1 in North 3.1 mph 3.8 mph 99% 0 in 0 W/m2
06:58 40.3 °F 39.9 °F 30.1 in NNW 2.2 mph 4.5 mph 99% 0 in 0 W/m2
07:03 40.3 °F 39.9 °F 30.1 in NNW 2.2 mph 4.5 mph 99% 0 in 0 W/m2
07:04 40.3 °F 39.9 °F 30.1 in NNW 1.6 mph 4.5 mph 99% 0 in 0 W/m2
07:09 40.5 °F 40.3 °F 30.1 in North 1.6 mph 4.5 mph 99% 0 in 0 W/m2
07:14 40.6 °F 40.5 °F 30.1 in NNW 1.6 mph 5.4 mph 99% 0 in 0 W/m2
07:19 40.6 °F 40.5 °F 30.1 in NNW 3.1 mph 5.4 mph 99% 0 in 0 W/m2
07:24 40.8 °F 40.6 °F 30.1 in NW 2.2 mph 5.4 mph 99% 0 in 0 W/m2
07:29 41 °F 40.6 °F 30.1 in NNW 3.1 mph 5.4 mph 99% 0 in 0 W/m2
07:34 41 °F 40.6 °F 30.1 in NW 3.1 mph 4.5 mph 99% 0 in 0 W/m2
07:39 41 °F 40.6 °F 30.1 in Calm   4.5 mph 99% 0 in 0 W/m2
07:44 41 °F 40.6 °F 30.1 in North 1.6 mph 4.5 mph 99% 0 in 0 W/m2
07:49 41.2 °F 40.8 °F 30.1 in North 3.1 mph 3.8 mph 99% 0 in 0 W/m2
07:54 41.4 °F 41.2 °F 30.1 in NW 1.6 mph 3.8 mph 99% 0 in 1 W/m2
07:59 41.4 °F 41.2 °F 30.1 in NW 1.6 mph 3.8 mph 99% 0 in 2 W/m2
08:05 41.4 °F 41.2 °F 30.1 in NNW 2.2 mph 3.8 mph 99% 0 in 4 W/m2
08:10 41.5 °F 41.4 °F 30.1 in North 1.6 mph 3.8 mph 99% 0 in 6 W/m2
08:15 41.5 °F 41.4 °F 30.1 in North 0.7 mph 3.1 mph 99% 0 in 10 W/m2
08:20 41.7 °F 41.5 °F 30.1 in North 1.6 mph 3.1 mph 99% 0 in 59 W/m2
08:25 41.9 °F 41.5 °F 30.1 in NNW 1.6 mph 2.2 mph 99% 0 in 33 W/m2
08:30 42.1 °F 41.7 °F 30.1 in North 1.6 mph 3.8 mph 99% 0 in 32 W/m2
08:35 42.4 °F 42.3 °F 30.1 in NNE 1.6 mph 3.8 mph 99% 0 in 32 W/m2
08:40 42.6 °F 42.4 °F 30.1 in NNE 1.6 mph 3.8 mph 99% 0 in 42 W/m2
08:45 42.8 °F 42.3 °F 30.1 in NNE 0.7 mph 3.8 mph 98% 0 in 39 W/m2
08:50 43 °F 42.4 °F 30.1 in Calm   3.1 mph 98% 0 in 40 W/m2
08:55 43.2 °F 42.6 °F 30.1 in NNW 1.6 mph 2.2 mph 98% 0 in 46 W/m2
09:00 43.3 °F 42.8 °F 30.1 in NNW 2.2 mph 3.8 mph 98% 0 in 51 W/m2
09:05 43.5 °F 43 °F 30.1 in NNW 0.7 mph 3.8 mph 98% 0 in 49 W/m2
09:10 43.9 °F 43.3 °F 30.1 in North 1.6 mph 3.8 mph 98% 0 in 51 W/m2
09:15 44.1 °F 43.5 °F 30.1 in North 1.6 mph 3.1 mph 98% 0 in 52 W/m2
09:20 44.2 °F 43.7 °F 30.1 in North 2.2 mph 3.8 mph 98% 0 in 59 W/m2
09:25 44.4 °F 43.9 °F 30.1 in NNW 2.2 mph 3.8 mph 98% 0 in 60 W/m2
09:30 45 °F 44.2 °F 30.1 in Calm   4.5 mph 97% 0 in 65 W/m2
09:35 45.3 °F 44.4 °F 30.1 in NNW 2.2 mph 4.5 mph 97% 0 in 66 W/m2
09:40 45.3 °F 44.4 °F 30.1 in NNW 2.2 mph 3.1 mph 97% 0 in 63 W/m2
09:45 45.5 °F 44.8 °F 30.1 in North 1.6 mph 3.1 mph 97% 0 in 70 W/m2
09:50 46 °F 45.1 °F 30.1 in NNW 1.6 mph 3.1 mph 97% 0 in 69 W/m2
09:55 46 °F 45.1 °F 30.1 in NNW 1.6 mph 3.1 mph 97% 0 in 61 W/m2
10:00 46.2 °F 45.3 °F 30.1 in NNW 0.7 mph 3.1 mph 97% 0 in 70 W/m2
10:05 46.4 °F 46 °F 30.1 in NNW 1.6 mph 3.1 mph 99% 0 in 77 W/m2
10:10 46.6 °F 46.2 °F 30.1 in North 0.7 mph 3.1 mph 99% 0 in 73 W/m2
10:15 46.8 °F 46.6 °F 30.1 in NNW 0.7 mph 2.2 mph 99% 0 in 57 W/m2
10:20 46.8 °F 46.6 °F 30.1 in NW 1.6 mph 3.1 mph 99% 0 in 53 W/m2
10:25 46.8 °F 46.6 °F 30.1 in NW 2.2 mph 3.8 mph 99% 0 in 55 W/m2
10:30 47.1 °F 46.9 °F 30.1 in NNW 0.7 mph 3.8 mph 99% 0 in 69 W/m2
10:35 47.3 °F 46.9 °F 30.1 in NNW 0.7 mph 3.8 mph 99% 0 in 75 W/m2
10:40 47.8 °F 47.7 °F 30.1 in NNE 1.6 mph 3.1 mph 99% 0 in 67 W/m2
10:45 48.2 °F 47.5 °F 30.1 in North 1.6 mph 3.8 mph 97% 0 in 61 W/m2
10:50 48.4 °F 47.7 °F 30.1 in NNW 1.6 mph 3.8 mph 97% 0 in 60 W/m2
10:55 48.6 °F 47.8 °F 30.1 in Calm   3.1 mph 97% 0 in 66 W/m2
11:00 48.7 °F 47.8 °F 30.1 in North 2.2 mph 3.1 mph 97% 0 in 62 W/m2
11:06 48.9 °F 47.8 °F 30.1 in NNW 1.6 mph 3.8 mph 96% 0 in 49 W/m2
11:11 48.7 °F 47.7 °F 30.1 in NW 3.1 mph 4.5 mph 96% 0 in 51 W/m2
11:16 48.6 °F 47.5 °F 30.1 in NW 4.5 mph 5.4 mph 96% 0 in 56 W/m2
11:21 48.4 °F 47.3 °F 30.1 in NNW 1.6 mph 5.4 mph 96% 0 in 63 W/m2
11:26 48.6 °F 47.5 °F 30.1 in NNW 2.2 mph 5.4 mph 96% 0 in 56 W/m2
11:31 48.6 °F 47.5 °F 30.1 in NNW 3.1 mph 4.5 mph 96% 0 in 50 W/m2
11:36 48.6 °F 47.5 °F 30.1 in NNW 2.2 mph 3.8 mph 96% 0 in 48 W/m2
11:41 48.6 °F 47.5 °F 30.1 in NNW 2.2 mph 3.8 mph 96% 0 in 49 W/m2
11:46 48.6 °F 47.5 °F 30.1 in NNW 2.2 mph 4.5 mph 96% 0 in 47 W/m2
11:51 48.6 °F 47.5 °F 30.1 in NNW 2.2 mph 4.5 mph 96% 0 in 53 W/m2
11:56 48.7 °F 47.7 °F 30.1 in NNW 0.7 mph 3.8 mph 96% 0 in 55 W/m2
12:01 48.9 °F 48 °F 30.1 in NNE 1.6 mph 3.8 mph 97% 0 in 59 W/m2
12:06 49.1 °F 48.4 °F 30.1 in North 3.8 mph 5.4 mph 97% 0 in 59 W/m2
12:11 49.1 °F 48 °F 30.1 in NNW 3.1 mph 5.4 mph 96% 0 in 61 W/m2
12:16 49.1 °F 48 °F 30.1 in NNW 4.5 mph 5.4 mph 96% 0 in 59 W/m2
12:21 49.1 °F 48 °F 30 in NNW 1.6 mph 5.4 mph 96% 0 in 71 W/m2
12:26 49.3 °F 48.2 °F 30 in North 2.2 mph 5.4 mph 96% 0 in 69 W/m2
12:31 49.3 °F 48.2 °F 30 in North 0.7 mph 4.5 mph 96% 0 in 62 W/m2
12:36 49.6 °F 48.6 °F 30 in North 0.7 mph 3.8 mph 96% 0 in 62 W/m2
12:41 49.8 °F 48.7 °F 30 in NNW 0.7 mph 3.1 mph 96% 0 in 55 W/m2
12:46 50 °F 48.6 °F 30 in NNW 0.7 mph 3.1 mph 95% 0 in 50 W/m2
12:51 50 °F 48.4 °F 30 in North 1.6 mph 3.1 mph 94% 0 in 54 W/m2
12:56 50.2 °F 48.6 °F 30 in North 0.7 mph 2.2 mph 94% 0 in 47 W/m2
13:01 50.2 °F 48.6 °F 30 in North 1.6 mph 3.1 mph 94% 0 in 47 W/m2
13:06 50.2 °F 48.6 °F 30 in NNW 3.1 mph 3.8 mph 94% 0 in 55 W/m2
13:11 50.4 °F 48.7 °F 30 in North 2.2 mph 3.8 mph 94% 0 in 43 W/m2
13:16 50.4 °F 48.7 °F 30 in NNW 1.6 mph 3.8 mph 94% 0 in 42 W/m2
13:21 50.4 °F 48.7 °F 30 in NW 1.6 mph 3.8 mph 94% 0 in 41 W/m2
13:26 50.2 °F 48.6 °F 30 in NW 2.2 mph 4.5 mph 94% 0 in 40 W/m2
13:31 50 °F 48.4 °F 30 in NW 1.6 mph 4.5 mph 94% 0 in 40 W/m2
13:36 50 °F 48.4 °F 30 in NW 3.1 mph 4.5 mph 94% 0 in 39 W/m2
13:41 49.8 °F 48.7 °F 30 in NNW 1.6 mph 4.5 mph 96% 0 in 44 W/m2
13:46 49.8 °F 48.7 °F 30 in NNW 3.8 mph 4.5 mph 96% 0 in 45 W/m2
13:51 49.8 °F 48.7 °F 30 in NNW 1.6 mph 4.5 mph 96% 0 in 36 W/m2
13:56 50 °F 48.9 °F 30 in NNW 2.2 mph 4.5 mph 96% 0 in 36 W/m2
14:01 50 °F 48.9 °F 30 in NNW 3.1 mph 3.8 mph 96% 0 in 36 W/m2
14:06 50 °F 48.9 °F 30 in North 1.6 mph 3.8 mph 96% 0 in 33 W/m2
14:11 50 °F 48.9 °F 30 in North 2.2 mph 3.1 mph 96% 0 in 33 W/m2
14:16 50 °F 48.9 °F 30 in NNW 0.7 mph 3.1 mph 96% 0.01 in 26 W/m2
14:21 50 °F 48.9 °F 30 in Calm   3.1 mph 96% 0.01 in 24 W/m2
14:26 50 °F 48.9 °F 30 in NW 0.7 mph 2.2 mph 96% 0.01 in 29 W/m2
14:31 50 °F 48.9 °F 30 in WNW 1.6 mph 2.2 mph 96% 0.01 in 44 W/m2
14:36 50 °F 48.9 °F 30 in NW 1.6 mph 2.2 mph 96% 0.01 in 57 W/m2
14:41 50 °F 49.3 °F 30 in Calm   2.2 mph 97% 0.01 in 49 W/m2
14:46 50 °F 49.3 °F 30 in Calm   2.2 mph 97% 0.01 in 50 W/m2
14:51 50.2 °F 49.5 °F 30 in North 0.7 mph 2.2 mph 97% 0.01 in 52 W/m2
14:56 50.2 °F 49.6 °F 30 in Calm   3.1 mph 98% 0.01 in 54 W/m2
15:01 50.4 °F 49.8 °F 30 in North 0.7 mph 3.1 mph 98% 0.01 in 41 W/m2
15:06 50.4 °F 49.8 °F 30 in NNW 1.6 mph 3.1 mph 98% 0.01 in 44 W/m2
15:11 50.4 °F 50.2 °F 30 in Calm   3.1 mph 99% 0.01 in 49 W/m2
15:16 50.4 °F 50.2 °F 30 in NNW 0.7 mph 2.2 mph 99% 0 in 48 W/m2
15:21 50.5 °F 50.4 °F 30 in NNW 1.6 mph 2.2 mph 99% 0 in 40 W/m2
15:26 50.4 °F 50.2 °F 30 in NW 1.6 mph 3.8 mph 99% 0 in 31 W/m2
15:31 50.4 °F 50.2 °F 30 in NW 0.7 mph 3.8 mph 99% 0 in 28 W/m2
15:36 50.4 °F 50.2 °F 30 in North 0.7 mph 2.2 mph 99% 0 in 26 W/m2
15:41 50.2 °F 49.8 °F 30 in North 0.7 mph 3.1 mph 99% 0 in 21 W/m2
15:46 50.2 °F 49.8 °F 30 in North 1.6 mph 3.1 mph 99% 0 in 18 W/m2
15:51 50.2 °F 49.8 °F 30 in North 1.6 mph 2.2 mph 99% 0 in 17 W/m2
15:56 50.2 °F 49.8 °F 30 in NNW 1.6 mph 2.2 mph 99% 0 in 12 W/m2
16:01 50 °F 49.6 °F 30 in NNW 1.6 mph 2.2 mph 99% 0 in 9 W/m2
16:06 50 °F 49.6 °F 30 in NNW 0.7 mph 2.2 mph 99% 0 in 4 W/m2
16:11 50 °F 49.6 °F 30 in Calm   1.6 mph 99% 0 in 2 W/m2
16:16 49.8 °F 49.6 °F 30 in NW 0.7 mph 1.6 mph 99% 0 in 1 W/m2
16:21 49.8 °F 49.6 °F 30 in NNW 0.7 mph 2.2 mph 99% 0 in 0 W/m2
16:26 49.8 °F 49.6 °F 30 in North 0.7 mph 2.2 mph 99% 0 in 0 W/m2
16:31 49.8 °F 49.6 °F 30 in North 1.6 mph 3.1 mph 99% 0 in 0 W/m2
16:36 49.8 °F 49.6 °F 30 in North 0.7 mph 3.1 mph 99% 0.01 in 0 W/m2
16:41 49.8 °F 49.6 °F 30 in North 0.7 mph 3.1 mph 99% 0.01 in 0 W/m2
16:46 49.8 °F 49.6 °F 30 in Calm   2.2 mph 99% 0.01 in 0 W/m2
16:51 49.6 °F 49.5 °F 30 in Calm   2.2 mph 99% 0.01 in 0 W/m2
16:56 49.6 °F 49.5 °F 30 in NW 0.7 mph 2.2 mph 99% 0.01 in 0 W/m2
17:01 49.6 °F 49.5 °F 30 in Calm   2.2 mph 99% 0.01 in 0 W/m2
17:06 49.6 °F 49.5 °F 30 in Calm   1.6 mph 99% 0.01 in 0 W/m2
17:11 49.6 °F 49.5 °F 30 in Calm   1.6 mph 99% 0.01 in 0 W/m2
17:16 49.6 °F 49.5 °F 30 in NNE 0.7 mph 2.2 mph 99% 0.01 in 0 W/m2
17:21 49.6 °F 49.5 °F 30 in NNE 0.7 mph 2.2 mph 99% 0.01 in 0 W/m2
17:26 49.8 °F 49.6 °F 30 in NE 0.7 mph 2.2 mph 99% 0.01 in 0 W/m2
17:31 49.8 °F 49.6 °F 30 in NE 0.7 mph 2.2 mph 99% 0.01 in 0 W/m2
17:36 49.8 °F 49.6 °F 30 in NNE 0.7 mph 2.2 mph 99% 0 in 0 W/m2
17:41 49.8 °F 49.6 °F 30 in Calm   2.2 mph 99% 0 in 0 W/m2
17:46 49.8 °F 49.6 °F 30 in Calm   2.2 mph 99% 0 in 0 W/m2
17:51 49.8 °F 49.6 °F 30 in North 0.7 mph 1.6 mph 99% 0 in 0 W/m2
17:56 50 °F 49.6 °F 30 in Calm   2.2 mph 99% 0 in 0 W/m2
18:13 50 °F 49.6 °F 30 in North 0.7 mph 2.2 mph 99% 0.01 in 0 W/m2
18:18 50 °F 49.6 °F 29.9 in Calm   2.2 mph 99% 0.01 in 0 W/m2
18:23 50 °F 49.6 °F 30 in North 0.7 mph 2.2 mph 99% 0.01 in 0 W/m2
18:28 50 °F 49.6 °F 29.9 in NNE 0.7 mph 1.6 mph 99% 0.02 in 0 W/m2
18:33 50 °F 49.6 °F 29.9 in NNE 1.6 mph 3.1 mph 99% 0.02 in 0 W/m2
18:38 50.2 °F 49.8 °F 29.9 in North 0.7 mph 3.1 mph 99% 0.02 in 0 W/m2
18:43 50.4 °F 50.2 °F 29.9 in NNW 1.6 mph 5.4 mph 99% 0.02 in 0 W/m2
18:49 50.5 °F 50.4 °F 29.9 in NNE 1.6 mph 5.4 mph 99% 0.02 in 0 W/m2
18:54 50.5 °F 50.4 °F 29.9 in NNW 0.7 mph 3.8 mph 99% 0.02 in 0 W/m2
18:59 50.5 °F 50.4 °F 29.9 in NNW 3.8 mph 5.4 mph 99% 0.02 in 0 W/m2
19:04 51.1 °F 50.7 °F 29.9 in NW 1.6 mph 5.4 mph 99% 0.01 in 0 W/m2
19:09 51.1 °F 50.7 °F 29.9 in NNE 3.1 mph 5.4 mph 99% 0.02 in 0 W/m2
19:14 50.9 °F 50.5 °F 29.9 in Calm   5.4 mph 99% 0.04 in 0 W/m2
19:19 50.9 °F 50.5 °F 29.9 in NNW 1.6 mph 3.8 mph 99% 0.04 in 0 W/m2
19:24 51.1 °F 50.7 °F 29.9 in NW 0.7 mph 3.1 mph 99% 0.02 in 0 W/m2
19:29 50.9 °F 50.5 °F 29.9 in NNW 1.6 mph 3.1 mph 99% 0.04 in 0 W/m2
19:34 50.9 °F 50.5 °F 29.9 in NNW 1.6 mph 3.1 mph 99% 0.04 in 0 W/m2
19:39 50.9 °F 50.5 °F 29.9 in North 0.7 mph 2.2 mph 99% 0.04 in 0 W/m2
19:44 50.7 °F 50.5 °F 29.9 in NNW 0.7 mph 2.2 mph 99% 0.04 in 0 W/m2
19:49 50.7 °F 50.5 °F 29.9 in NNW 0.7 mph 2.2 mph 99% 0.05 in 0 W/m2
19:54 50.7 °F 50.5 °F 29.9 in NNW 1.6 mph 3.1 mph 99% 0.05 in 0 W/m2
19:59 50.5 °F 50.4 °F 29.9 in NNW 2.2 mph 3.8 mph 99% 0.05 in 0 W/m2
20:04 50.5 °F 50.4 °F 29.9 in NNW 0.7 mph 3.8 mph 99% 0.05 in 0 W/m2
20:09 50.5 °F 50.4 °F 29.9 in North 0.7 mph 3.1 mph 99% 0.05 in 0 W/m2
20:14 50.5 °F 50.4 °F 29.9 in North 0.7 mph 2.2 mph 99% 0.04 in 0 W/m2
20:19 50.4 °F 50.2 °F 29.9 in North 0.7 mph 3.1 mph 99% 0.04 in 0 W/m2
20:24 50.4 °F 50.2 °F 29.9 in NNW 1.6 mph 3.1 mph 99% 0.05 in 0 W/m2
20:29 50.4 °F 50.2 °F 29.9 in NNW 0.7 mph 2.2 mph 99% 0.04 in 0 W/m2
20:34 50.4 °F 50.2 °F 29.9 in Calm   2.2 mph 99% 0.04 in 0 W/m2
20:39 50.4 °F 50.2 °F 29.9 in NW 0.7 mph 1.6 mph 99% 0.04 in 0 W/m2
20:45 50.2 °F 49.8 °F 29.9 in Calm   1.6 mph 99% 0.04 in 0 W/m2
21:04 50.4 °F 50.2 °F 29.9 in Calm   2.2 mph 99% 0.04 in 0 W/m2
21:09 50.4 °F 50.2 °F 29.9 in Calm   2.2 mph 99% 0.02 in 0 W/m2
21:14 50.5 °F 50.4 °F 29.9 in SSW 2.2 mph 3.8 mph 99% 0.02 in 0 W/m2
21:31 53.8 °F 53.1 °F 29.9 in SSE 2.2 mph 6 mph 97% 0.02 in 0 W/m2
21:36 54.3 °F 53.4 °F 29.9 in SE 5.4 mph 7.6 mph 97% 0.02 in 0 W/m2
21:41 54.9 °F 54 °F 29.9 in ESE 6.9 mph 10.7 mph 97% 0.04 in 0 W/m2
21:46 54.9 °F 54 °F 29.9 in SE 3.8 mph 10.7 mph 97% 0.02 in 0 W/m2
21:51 54.5 °F 53.8 °F 29.9 in SSE 6 mph 11.4 mph 97% 0.04 in 0 W/m2
21:56 54.5 °F 53.8 °F 29.8 in South 3.1 mph 11.4 mph 97% 0.04 in 0 W/m2
22:01 54.5 °F 53.8 °F 29.8 in SSE 4.5 mph 11.4 mph 97% 0.05 in 0 W/m2
22:06 54.9 °F 54 °F 29.8 in ESE 5.4 mph 14.5 mph 97% 0.06 in 0 W/m2
22:11 55 °F 54.1 °F 29.8 in SE 7.6 mph 14.5 mph 97% 0.07 in 0 W/m2
22:16 55.6 °F 55.2 °F 29.8 in SE 5.4 mph 13 mph 99% 0.08 in 0 W/m2
22:21 55.4 °F 55 °F 29.8 in SE 5.4 mph 15.2 mph 99% 0.08 in 0 W/m2
22:26 55.6 °F 55.2 °F 29.8 in SSE 4.5 mph 15.2 mph 99% 0.08 in 0 W/m2
22:31 55.9 °F 55.8 °F 29.8 in SSE 4.5 mph 13 mph 99% 0.08 in 0 W/m2
22:36 56.3 °F 55.9 °F 29.8 in SE 6 mph 13 mph 99% 0.09 in 0 W/m2
22:41 56.7 °F 56.5 °F 29.8 in ESE 6 mph 13 mph 99% 0.08 in 0 W/m2
22:46 56.7 °F 56.5 °F 29.8 in SE 3.8 mph 13.6 mph 99% 0.08 in 0 W/m2
22:51 56.7 °F 56.5 °F 29.8 in ESE 3.8 mph 13.6 mph 99% 0.07 in 0 W/m2
22:56 56.7 °F 56.5 °F 29.8 in SE 12.1 mph 13.6 mph 99% 0.07 in 0 W/m2
23:01 56.7 °F 56.5 °F 29.8 in SE 6.9 mph 13.6 mph 99% 0.07 in 0 W/m2
23:06 56.7 °F 56.5 °F 29.8 in ESE 6 mph 16.8 mph 99% 0.06 in 0 W/m2
23:11 56.7 °F 56.5 °F 29.8 in ESE 9.8 mph 16.8 mph 99% 0.05 in 0 W/m2
23:16 56.7 °F 56.5 °F 29.8 in SE 6 mph 14.5 mph 99% 0.04 in 0 W/m2
23:21 56.7 °F 56.5 °F 29.8 in SE 6 mph 15.2 mph 99% 0.02 in 0 W/m2
23:26 56.7 °F 56.5 °F 29.8 in SE 5.4 mph 15.2 mph 99% 0.02 in 0 W/m2
23:31 56.7 °F 56.5 °F 29.8 in ESE 6 mph 15.2 mph 99% 0.02 in 0 W/m2
23:36 57 °F 56.8 °F 29.8 in ESE 8.3 mph 15.2 mph 99% 0.01 in 0 W/m2
23:41 57 °F 56.8 °F 29.8 in ESE 6 mph 15.2 mph 99% 0.01 in 0 W/m2
23:46 57.2 °F 56.8 °F 29.8 in East 9.8 mph 15.2 mph 99% 0.01 in 0 W/m2
23:51 57.4 °F 57 °F 29.7 in ESE 8.3 mph 14.5 mph 99% 0.01 in 0 W/m2
23:56 57.7 °F 57.6 °F 29.7 in ESE 3.8 mph 13.6 mph 99% 0 in 0 W/m2
Northern Hawkes Bay. New Zealand Historic Data
Compliments of Weather Underground - 2 mb